Time;durP1;ratioP1;P1;durP2;ratioP2;P2;SDS_P1;SDS_P2;PMS_P1;PMS_P2;Temp;Humidity;BMP_temperature;BMP_pressure;BME280_temperature;BME280_humidity;BME280_pressure;Samples;Min_cycle;Max_cycle;Signal;HPM_P1;HPM_P2
2023/01/03 00:01:21;;;;;;;3.35;2.63;;;8.50;99.90;;;;;;5050514;28;20033;-53
2023/01/03 00:03:47;;;;;;;2.97;2.60;;;8.60;99.90;;;;;;5049561;28;20515;-51
2023/01/03 00:06:20;;;;;;;2.85;2.60;;;8.60;99.90;;;;;;5050311;28;20040;-56
2023/01/03 00:08:46;;;;;;;2.40;2.30;;;8.50;99.90;;;;;;5050130;28;20025;-51
2023/01/03 00:11:15;;;;;;;3.47;3.28;;;8.50;99.90;;;;;;5050435;28;20037;-53
2023/01/03 00:13:41;;;;;;;3.10;2.90;;;8.60;99.90;;;;;;5049557;28;20116;-51
2023/01/03 00:16:19;;;;;;;2.78;2.58;;;8.50;99.90;;;;;;5049812;28;20021;-53
2023/01/03 00:18:45;;;;;;;3.63;3.20;;;8.50;99.90;;;;;;5052380;28;20438;-51
2023/01/03 00:21:12;;;;;;;3.20;2.90;;;8.70;99.90;;;;;;5052600;28;20473;-53
2023/01/03 00:23:37;;;;;;;2.80;2.60;;;8.70;99.90;;;;;;5052682;28;20040;-51
2023/01/03 00:26:11;;;;;;;3.15;2.90;;;8.80;99.90;;;;;;5052429;28;20021;-51
2023/01/03 00:28:37;;;;;;;3.30;3.00;;;8.80;99.90;;;;;;5053329;28;20555;-54
2023/01/03 00:31:07;;;;;;;3.65;3.40;;;8.80;99.90;;;;;;5053437;28;20095;-51
2023/01/03 00:33:34;;;;;;;3.88;3.40;;;8.90;99.90;;;;;;5053118;28;20036;-49
2023/01/03 00:36:05;;;;;;;6.47;3.40;;;8.90;99.90;;;;;;5053076;28;20154;-53
2023/01/03 00:38:39;;;;;;;3.65;3.35;;;8.90;99.90;;;;;;5053069;28;20029;-56
2023/01/03 00:41:11;;;;;;;18.67;14.02;;;8.90;99.90;;;;;;5035255;28;20028;-49
2023/01/03 00:43:38;;;;;;;6.75;4.50;;;8.90;99.90;;;;;;5052533;28;20025;-52
2023/01/03 00:46:04;;;;;;;11.32;7.53;;;8.80;99.90;;;;;;5035203;28;20492;-54
2023/01/03 00:48:30;;;;;;;3.97;3.53;;;8.80;99.90;;;;;;5052959;28;20021;-50
2023/01/03 00:50:56;;;;;;;3.72;3.42;;;8.80;99.90;;;;;;5053181;28;20086;-53
2023/01/03 00:53:22;;;;;;;5.20;3.67;;;8.80;99.90;;;;;;5052447;28;20070;-54
2023/01/03 00:55:48;;;;;;;3.67;3.38;;;8.80;99.90;;;;;;5052919;28;20097;-49
2023/01/03 00:58:14;;;;;;;4.10;3.42;;;8.80;99.90;;;;;;5052954;28;20099;-51
2023/01/03 01:00:39;;;;;;;3.88;3.47;;;8.80;99.90;;;;;;5053157;28;20108;-49
2023/01/03 01:03:05;;;;;;;3.83;3.53;;;8.80;99.90;;;;;;5034374;28;20021;-53
2023/01/03 01:05:31;;;;;;;3.58;3.28;;;8.70;99.90;;;;;;5052189;28;20048;-50
2023/01/03 01:07:57;;;;;;;3.40;3.13;;;8.70;99.90;;;;;;5052842;28;20025;-49
2023/01/03 01:10:23;;;;;;;3.50;3.20;;;8.70;99.90;;;;;;5052829;28;20033;-50
2023/01/03 01:12:48;;;;;;;6.35;4.10;;;8.70;99.90;;;;;;5052220;28;20222;-51
2023/01/03 01:15:14;;;;;;;4.25;3.92;;;8.70;99.90;;;;;;5053145;28;20464;-51
2023/01/03 01:17:39;;;;;;;4.65;4.05;;;8.60;99.90;;;;;;5052613;28;20048;-50
2023/01/03 01:20:05;;;;;;;4.15;3.75;;;8.60;99.90;;;;;;5052485;28;20028;-53
2023/01/03 01:22:32;;;;;;;3.63;3.42;;;8.60;99.90;;;;;;5051739;28;20103;-53
2023/01/03 01:24:58;;;;;;;3.85;3.55;;;8.60;99.90;;;;;;5052913;28;20075;-51
2023/01/03 01:27:23;;;;;;;3.88;3.58;;;8.50;99.90;;;;;;5051240;28;20037;-51
2023/01/03 01:29:49;;;;;;;3.75;3.40;;;8.50;99.90;;;;;;5052329;28;20033;-49
2023/01/03 01:32:14;;;;;;;3.45;3.15;;;8.50;99.90;;;;;;5051658;28;20029;-51
2023/01/03 01:34:40;;;;;;;4.93;3.58;;;8.50;99.90;;;;;;5052480;28;20063;-50
2023/01/03 01:37:06;;;;;;;3.63;3.17;;;8.50;99.90;;;;;;5052084;28;20024;-54
2023/01/03 01:39:31;;;;;;;2.95;2.75;;;8.50;99.90;;;;;;5052190;28;20032;-50
2023/01/03 01:44:55;;;;;;;5.85;3.25;;;8.60;99.90;;;;;;5052391;28;20043;-48
2023/01/03 01:47:24;;;;;;;4.18;3.80;;;8.60;99.90;;;;;;5052270;28;20021;-49
2023/01/03 01:49:55;;;;;;;3.80;3.25;;;8.60;99.90;;;;;;5034009;28;20523;-49
2023/01/03 01:52:21;;;;;;;4.05;3.60;;;8.60;99.90;;;;;;5051256;28;20032;-49
2023/01/03 01:54:49;;;;;;;3.00;2.80;;;8.60;99.90;;;;;;5051846;28;20518;-50
2023/01/03 01:57:17;;;;;;;3.60;3.30;;;8.70;99.90;;;;;;5051661;28;20021;-53
2023/01/03 01:59:43;;;;;;;7.10;3.92;;;8.70;99.90;;;;;;5052209;28;20017;-51
2023/01/03 02:02:09;;;;;;;4.30;3.38;;;8.80;99.90;;;;;;5050930;28;20025;-51
2023/01/03 02:04:38;;;;;;;4.47;3.97;;;8.70;99.90;;;;;;5051646;28;20063;-49
2023/01/03 02:07:05;;;;;;;6.97;3.65;;;8.70;99.90;;;;;;5033611;28;20039;-54
2023/01/03 02:09:33;;;;;;;4.18;3.47;;;8.70;99.90;;;;;;5051521;28;20439;-51
2023/01/03 02:15:49;;;;;;;5.03;3.90;;;8.80;99.90;;;;;;5051752;28;20036;-52
2023/01/03 02:18:30;;;;;;;6.32;4.18;;;8.80;99.90;;;;;;5051173;28;20021;-49
2023/01/03 02:21:26;;;;;;;4.53;4.13;;;8.80;99.90;;;;;;5051465;28;20104;-52
2023/01/03 02:23:55;;;;;;;;;;;8.80;99.90;;;;;;5050573;28;20044;-50
2023/01/03 02:26:49;;;;;;;7.95;4.60;;;8.70;99.90;;;;;;5050217;28;19905;-48
2023/01/03 02:29:18;;;;;;;4.22;3.85;;;8.70;99.90;;;;;;5051334;28;20064;-50
2023/01/03 02:32:02;;;;;;;4.50;4.13;;;8.60;99.90;;;;;;5052450;28;20090;-51
2023/01/03 02:34:39;;;;;;;4.75;4.15;;;8.50;99.90;;;;;;5051471;28;20247;-51
2023/01/03 02:37:27;;;;;;;5.20;4.70;;;8.50;99.90;;;;;;5033255;28;20050;-49
2023/01/03 02:40:14;;;;;;;5.93;4.70;;;8.40;99.90;;;;;;5051340;28;20020;-52
2023/01/03 02:43:01;;;;;;;5.05;4.65;;;8.40;99.90;;;;;;5050516;28;20029;-50
2023/01/03 02:46:14;;;;;;;7.57;5.28;;;8.30;99.90;;;;;;5051343;28;20036;-49
2023/01/03 02:49:00;;;;;;;5.78;5.28;;;8.30;99.90;;;;;;4989848;28;20031;-49
2023/01/03 02:52:01;;;;;;;6.22;5.40;;;8.20;99.90;;;;;;4989909;28;20065;-52
2023/01/03 02:54:34;;;;;;;5.63;5.13;;;8.20;99.90;;;;;;5039463;28;20033;-50
2023/01/03 02:57:08;;;;;;;7.43;5.68;;;8.20;99.90;;;;;;5051103;28;20040;-50
2023/01/03 02:59:42;;;;;;;5.32;4.70;;;8.10;99.90;;;;;;5051239;28;20036;-52
2023/01/03 03:02:09;;;;;;;7.50;5.45;;;8.10;99.90;;;;;;5050509;28;20029;-53
2023/01/03 03:04:36;;;;;;;6.40;5.63;;;8.00;99.90;;;;;;5051120;28;20022;-51
2023/01/03 03:07:12;;;;;;;7.35;5.28;;;8.00;99.90;;;;;;5050654;28;20025;-51
2023/01/03 03:13:11;;;;;;;5.88;5.38;;;7.90;99.90;;;;;;5051063;28;20108;-52
2023/01/03 03:15:13;;;;;;;5.95;5.43;;;7.90;99.90;;;;;;5050873;28;20094;-51
2023/01/03 03:17:41;;;;;;;7.07;5.18;;;7.90;99.90;;;;;;5050728;28;20029;-48
2023/01/03 03:25:56;;;;;;;6.80;5.35;;;7.80;99.90;;;;;;5049255;28;20033;-50
2023/01/03 03:28:44;;;;;;;7.43;5.28;;;7.80;99.90;;;;;;5050795;28;20025;-53
2023/01/03 03:31:19;;;;;;;8.68;5.38;;;7.80;99.90;;;;;;5054616;28;20028;-49
2023/01/03 03:33:56;;;;;;;10.40;5.75;;;7.80;99.90;;;;;;5053777;28;20052;-51
2023/01/03 03:36:45;;;;;;;9.00;5.43;;;7.80;99.90;;;;;;5036769;28;20488;-50
2023/01/03 03:45:58;;;;;;;8.43;5.43;;;7.80;99.90;;;;;;5038304;28;20344;-51
2023/01/03 03:48:30;;;;;;;5.82;5.03;;;7.70;99.90;;;;;;5046023;28;20412;-49
2023/01/03 03:51:07;;;;;;;8.10;6.05;;;7.70;99.90;;;;;;5054218;28;20025;-49
2023/01/03 03:53:34;;;;;;;6.00;5.40;;;7.70;99.90;;;;;;5053558;28;20056;-51
2023/01/03 03:56:06;;;;;;;8.60;5.55;;;7.60;99.90;;;;;;5054300;28;20429;-53
2023/01/03 03:58:45;;;;;;;7.45;5.75;;;7.70;99.90;;;;;;5054290;28;20512;-48
2023/01/03 04:01:14;;;;;;;6.13;5.28;;;7.60;99.90;;;;;;5036068;28;20028;-50
2023/01/03 04:03:42;;;;;;;7.20;5.72;;;7.60;99.90;;;;;;5052999;28;20032;-52
2023/01/03 04:06:17;;;;;;;7.47;6.68;;;7.50;99.90;;;;;;5053687;28;20017;-52
2023/01/03 04:08:43;;;;;;;11.63;6.32;;;7.60;99.90;;;;;;5054097;28;20392;-50
2023/01/03 04:11:09;;;;;;;7.80;6.18;;;7.70;99.90;;;;;;5053733;28;20036;-48
2023/01/03 04:13:37;;;;;;;7.97;5.97;;;7.70;99.90;;;;;;5053004;28;20021;-52
2023/01/03 04:16:04;;;;;;;7.00;5.72;;;7.70;99.90;;;;;;5053901;28;20120;-48
2023/01/03 04:18:29;;;;;;;6.80;5.90;;;7.70;99.90;;;;;;5035819;28;20063;-50
2023/01/03 04:20:56;;;;;;;8.20;6.47;;;7.70;99.90;;;;;;5053586;28;20021;-53
2023/01/03 04:23:21;;;;;;;10.13;6.60;;;7.70;99.90;;;;;;5052939;28;20017;-51
2023/01/03 04:25:49;;;;;;;8.50;6.35;;;7.60;99.90;;;;;;5052298;28;20021;-53
2023/01/03 04:28:15;;;;;;;8.45;6.30;;;7.60;99.90;;;;;;5035306;28;20032;-54
2023/01/03 04:30:41;;;;;;;8.02;5.88;;;7.50;99.90;;;;;;5053480;28;20013;-49
2023/01/03 04:33:07;;;;;;;8.60;6.55;;;7.50;99.90;;;;;;5035118;28;20207;-52
2023/01/03 04:35:33;;;;;;;6.78;6.18;;;7.40;99.90;;;;;;5053298;28;20036;-51
2023/01/03 04:37:58;;;;;;;9.20;6.60;;;7.30;99.90;;;;;;5035313;28;20043;-49
2023/01/03 04:40:24;;;;;;;6.57;5.75;;;7.30;99.90;;;;;;5053236;28;20035;-52
2023/01/03 04:45:34;;;;;;;8.77;6.25;;;7.30;99.90;;;;;;5053852;28;20052;-49
2023/01/03 04:48:00;;;;;;;6.32;5.68;;;7.30;99.90;;;;;;5053827;28;20025;-49
2023/01/03 04:50:26;;;;;;;9.85;5.57;;;7.20;99.90;;;;;;5053566;28;20492;-49
2023/01/03 04:52:51;;;;;;;9.00;7.10;;;7.20;99.90;;;;;;5052499;28;20124;-49
2023/01/03 04:55:17;;;;;;;7.32;5.63;;;7.10;99.90;;;;;;5052841;28;20029;-51
2023/01/03 04:57:42;;;;;;;10.98;6.07;;;7.10;99.90;;;;;;5052788;28;20036;-50
2023/01/03 05:00:08;;;;;;;7.57;6.10;;;7.00;99.90;;;;;;5052910;28;20448;-51
2023/01/03 05:02:34;;;;;;;6.80;6.10;;;7.00;99.90;;;;;;5051975;28;20022;-50
2023/01/03 05:04:59;;;;;;;9.13;6.43;;;6.90;99.90;;;;;;5052675;28;20035;-47
2023/01/03 05:07:28;;;;;;;6.90;6.03;;;6.90;99.90;;;;;;5034358;28;20101;-49
2023/01/03 05:09:54;;;;;;;6.57;5.97;;;6.80;99.90;;;;;;5052549;28;20029;-49
2023/01/03 05:12:20;;;;;;;8.65;6.00;;;6.80;99.90;;;;;;5052113;28;20029;-52
2023/01/03 05:14:45;;;;;;;8.55;5.55;;;6.80;99.90;;;;;;5053057;28;20025;-52
2023/01/03 05:17:11;;;;;;;10.18;6.30;;;6.80;99.90;;;;;;5052708;28;20049;-50
2023/01/03 05:25:48;;;;;;;7.72;6.95;;;6.80;99.90;;;;;;5052315;28;20096;-48
2023/01/03 05:27:53;;;;;;;;;;;6.70;99.90;;;;;;5052931;28;20032;-50
2023/01/03 05:30:18;;;;;;;;;;;6.60;99.90;;;;;;5034823;28;19916;-49
2023/01/03 05:32:43;;;;;;;7.97;6.97;;;6.70;99.90;;;;;;5051606;28;19952;-49
2023/01/03 05:35:09;;;;;;;8.98;7.45;;;6.60;99.90;;;;;;5052111;28;20017;-51
2023/01/03 05:37:34;;;;;;;10.77;7.50;;;6.60;99.90;;;;;;5034060;28;20028;-50
2023/01/03 05:40:00;;;;;;;9.05;7.05;;;6.60;99.90;;;;;;5051996;28;20456;-48
2023/01/03 05:42:26;;;;;;;8.35;7.55;;;6.50;99.90;;;;;;5033545;28;20033;-51
2023/01/03 05:44:51;;;;;;;10.13;7.63;;;6.50;99.90;;;;;;5052303;28;20051;-52
2023/01/03 05:47:17;;;;;;;9.50;7.25;;;6.50;99.90;;;;;;5052143;28;20029;-49
2023/01/03 05:49:42;;;;;;;11.30;8.88;;;6.50;99.90;;;;;;5051999;28;20480;-52
2023/01/03 05:52:08;;;;;;;13.73;7.97;;;6.40;99.90;;;;;;5050582;28;20037;-50
2023/01/03 05:54:33;;;;;;;10.60;9.43;;;6.40;99.90;;;;;;5052412;28;20079;-50
2023/01/03 05:56:59;;;;;;;11.38;9.73;;;6.30;99.90;;;;;;5051801;28;20028;-52
2023/01/03 05:59:25;;;;;;;9.30;8.30;;;6.30;99.90;;;;;;5051799;28;20029;-50
2023/01/03 06:01:51;;;;;;;12.25;9.05;;;6.30;99.90;;;;;;5051474;28;20029;-50
2023/01/03 06:04:17;;;;;;;12.13;9.57;;;6.30;99.90;;;;;;5033584;28;20536;-49
2023/01/03 06:06:43;;;;;;;12.63;9.52;;;6.20;99.90;;;;;;5051449;28;20029;-49
2023/01/03 06:09:09;;;;;;;12.57;9.45;;;6.30;99.90;;;;;;5051546;28;20064;-52
2023/01/03 06:11:34;;;;;;;11.52;8.93;;;6.20;99.90;;;;;;5051558;28;20025;-52
2023/01/03 06:14:00;;;;;;;11.40;9.15;;;6.30;99.90;;;;;;5050906;28;20165;-48
2023/01/03 06:19:09;;;;;;;13.10;9.27;;;6.20;99.90;;;;;;5051525;28;20032;-50
2023/01/03 06:21:35;;;;;;;12.52;10.30;;;6.20;99.90;;;;;;5051470;28;20021;-50
2023/01/03 06:24:01;;;;;;;12.18;9.38;;;6.20;99.90;;;;;;5050777;28;20033;-55
2023/01/03 06:26:27;;;;;;;10.63;9.50;;;6.20;99.90;;;;;;5031862;28;20052;-52
2023/01/03 06:28:53;;;;;;;11.02;9.57;;;6.20;99.90;;;;;;5051439;28;20100;-48
2023/01/03 06:31:18;;;;;;;11.90;9.35;;;6.20;99.90;;;;;;5051499;28;20036;-52
2023/01/03 06:33:44;;;;;;;11.98;9.57;;;6.20;99.90;;;;;;5050537;28;20495;-51
2023/01/03 06:36:12;;;;;;;13.32;9.90;;;6.10;99.90;;;;;;5051145;28;20393;-50
2023/01/03 06:38:44;;;;;;;11.60;9.57;;;6.10;99.90;;;;;;5051978;28;20116;-56
2023/01/03 06:41:09;;;;;;;14.43;9.82;;;6.10;99.90;;;;;;5051428;28;20024;-49
2023/01/03 06:43:35;;;;;;;12.27;8.93;;;6.10;99.90;;;;;;5050393;28;20029;-49
2023/01/03 06:54:23;;;;;;;17.13;9.60;;;6.10;99.90;;;;;;5050839;28;20039;-52
2023/01/03 06:56:51;;;;;;;14.13;9.80;;;6.00;99.90;;;;;;5050985;28;20460;-53
2023/01/03 06:59:17;;;;;;;11.30;9.27;;;6.00;99.90;;;;;;5051000;28;20021;-49
2023/01/03 07:01:43;;;;;;;11.35;10.00;;;5.90;99.90;;;;;;5051154;28;20028;-52
2023/01/03 07:04:09;;;;;;;11.93;9.77;;;5.90;99.90;;;;;;5035121;28;20404;-53
2023/01/03 07:06:35;;;;;;;14.30;10.10;;;6.00;99.90;;;;;;5055062;28;20025;-52
2023/01/03 07:09:00;;;;;;;14.82;9.52;;;6.00;99.90;;;;;;5054859;28;20025;-51
2023/01/03 07:11:26;;;;;;;16.05;10.15;;;5.90;99.90;;;;;;5054764;28;20033;-52
2023/01/03 07:13:58;;;;;;;16.75;9.93;;;6.00;99.90;;;;;;5054007;28;20408;-52
2023/01/03 07:16:28;;;;;;;13.55;10.02;;;5.90;99.90;;;;;;5054662;28;20017;-53
2023/01/03 07:18:54;;;;;;;15.95;10.38;;;5.90;99.90;;;;;;5054670;28;20392;-49
2023/01/03 07:21:20;;;;;;;15.60;11.23;;;5.90;99.90;;;;;;5054664;28;20025;-51
2023/01/03 07:23:46;;;;;;;13.80;10.18;;;5.90;99.90;;;;;;5035955;28;20811;-50
2023/01/03 07:26:11;;;;;;;14.82;10.88;;;5.90;99.90;;;;;;5052945;28;20029;-53
2023/01/03 07:28:37;;;;;;;12.60;10.15;;;5.90;99.90;;;;;;5054526;28;20029;-51
2023/01/03 07:31:05;;;;;;;15.07;9.63;;;5.90;99.90;;;;;;5054601;28;20025;-55
2023/01/03 07:33:31;;;;;;;11.40;10.00;;;5.90;99.90;;;;;;5054135;28;20017;-54
2023/01/03 07:36:01;;;;;;;11.27;9.90;;;5.90;99.90;;;;;;5054215;28;20035;-52
2023/01/03 07:38:27;;;;;;;11.63;9.82;;;5.90;99.90;;;;;;5054299;28;20025;-52
2023/01/03 07:40:56;;;;;;;11.65;10.02;;;5.90;99.90;;;;;;5054382;28;20429;-47
2023/01/03 07:43:36;;;;;;;13.85;9.40;;;5.90;99.90;;;;;;5053625;28;20013;-49
2023/01/03 07:46:15;;;;;;;14.13;10.38;;;5.90;99.90;;;;;;5054202;28;20052;-48
2023/01/03 07:48:42;;;;;;;15.57;10.90;;;5.90;99.90;;;;;;5054040;28;20021;-50
2023/01/03 07:51:09;;;;;;;15.75;10.80;;;5.90;99.90;;;;;;5053956;28;20036;-48
2023/01/03 07:53:36;;;;;;;13.27;9.10;;;5.90;99.90;;;;;;5053209;28;20025;-52
2023/01/03 07:56:07;;;;;;;10.77;9.38;;;5.90;99.90;;;;;;5054031;28;20104;-49
2023/01/03 07:58:33;;;;;;;9.68;8.50;;;5.80;99.90;;;;;;5053866;28;20052;-48
2023/01/03 08:01:07;;;;;;;15.90;9.68;;;5.80;99.90;;;;;;5053874;28;20492;-47
2023/01/03 08:03:34;;;;;;;11.43;10.00;;;5.90;99.90;;;;;;5053165;28;20033;-48
2023/01/03 08:06:04;;;;;;;12.70;9.80;;;5.90;99.90;;;;;;5053904;28;20089;-49
2023/01/03 08:08:31;;;;;;;12.35;10.00;;;5.90;99.90;;;;;;5053893;28;20052;-52
2023/01/03 08:13:41;;;;;;;13.13;9.77;;;5.90;99.90;;;;;;5053354;28;20036;-49
2023/01/03 08:16:10;;;;;;;10.07;9.07;;;5.90;99.90;;;;;;5053093;28;20401;-49
2023/01/03 08:18:37;;;;;;;17.00;10.98;;;5.90;99.90;;;;;;5053623;28;20393;-49
2023/01/03 08:21:03;;;;;;;10.63;9.38;;;5.90;99.90;;;;;;5053616;28;20143;-51
2023/01/03 08:23:29;;;;;;;14.55;10.30;;;6.00;99.90;;;;;;5052740;28;20029;-52
2023/01/03 08:26:12;;;;;;;13.45;9.98;;;6.00;99.90;;;;;;5052277;28;20021;-50
2023/01/03 08:28:40;;;;;;;16.40;10.27;;;5.90;99.90;;;;;;5035371;28;20033;-50
2023/01/03 08:31:10;;;;;;;12.40;9.98;;;5.90;99.90;;;;;;5053378;28;20385;-51
2023/01/03 08:33:41;;;;;;;13.52;10.40;;;6.00;99.90;;;;;;5034638;28;20024;-49
2023/01/03 08:36:08;;;;;;;14.80;12.05;;;5.90;99.90;;;;;;5053207;28;20504;-47
2023/01/03 08:38:57;;;;;;;15.57;12.10;;;5.90;99.90;;;;;;5053365;28;20031;-49
2023/01/03 08:41:26;;;;;;;14.25;11.15;;;5.80;99.90;;;;;;5035558;28;20028;-48
2023/01/03 08:43:53;;;;;;;13.93;10.85;;;5.80;99.90;;;;;;5034380;28;20029;-50
2023/01/03 08:46:19;;;;;;;16.00;11.15;;;5.80;99.90;;;;;;5052984;28;20473;-48
2023/01/03 08:48:45;;;;;;;15.30;10.55;;;5.90;99.90;;;;;;5035182;28;20036;-49
2023/01/03 08:51:11;;;;;;;14.63;10.55;;;5.90;99.90;;;;;;5053100;28;20036;-50
2023/01/03 08:53:36;;;;;;;12.13;9.73;;;6.00;99.90;;;;;;5052180;28;20481;-53
2023/01/03 08:56:02;;;;;;;11.52;9.85;;;6.10;99.90;;;;;;5052944;28;20079;-52
2023/01/03 08:58:28;;;;;;;13.45;8.65;;;6.50;99.90;;;;;;5052878;28;20052;-52
2023/01/03 09:00:53;;;;;;;10.73;8.15;;;7.20;99.90;;;;;;5052923;28;20032;-50
2023/01/03 09:03:19;;;;;;;9.65;7.13;;;8.10;99.90;;;;;;5052055;28;20065;-49
2023/01/03 09:05:45;;;;;;;7.53;6.05;;;9.00;99.90;;;;;;5052584;28;20431;-51
2023/01/03 09:08:10;;;;;;;7.13;5.72;;;9.80;99.90;;;;;;5052742;28;20032;-49
2023/01/03 09:10:36;;;;;;;9.05;6.03;;;10.60;99.90;;;;;;5052812;28;20393;-50
2023/01/03 09:13:03;;;;;;;5.40;4.90;;;11.30;99.90;;;;;;5052044;28;20135;-49
2023/01/03 09:15:29;;;;;;;6.50;5.40;;;12.00;99.90;;;;;;5052666;28;20029;-51
2023/01/03 09:17:54;;;;;;;5.22;4.57;;;12.60;99.90;;;;;;5052782;28;20151;-53
2023/01/03 09:20:20;;;;;;;9.23;5.03;;;13.30;99.90;;;;;;5052734;28;20473;-49
2023/01/03 09:22:46;;;;;;;5.53;4.93;;;13.80;99.90;;;;;;5051823;28;20498;-50
2023/01/03 09:25:13;;;;;;;6.72;4.88;;;14.20;99.90;;;;;;5052527;28;20024;-48
2023/01/03 09:27:38;;;;;;;5.60;4.30;;;14.40;99.90;;;;;;5050377;28;20032;-52
2023/01/03 09:30:04;;;;;;;8.43;4.43;;;14.50;99.90;;;;;;5052677;28;20033;-51
2023/01/03 09:32:30;;;;;;;4.38;4.00;;;14.50;99.90;;;;;;5051483;28;20443;-54
2023/01/03 09:34:55;;;;;;;7.88;4.57;;;14.60;99.90;;;;;;5052026;28;20021;-49
2023/01/03 09:37:21;;;;;;;8.52;4.32;;;14.50;99.90;;;;;;5051857;28;20037;-47
2023/01/03 09:39:46;;;;;;;4.95;4.45;;;14.70;99.90;;;;;;5052065;28;20021;-53
2023/01/03 09:45:05;;;;;;;6.65;5.10;;;15.20;99.90;;;;;;5052578;28;20032;-47
2023/01/03 09:47:34;;;;;;;5.00;4.60;;;15.20;99.90;;;;;;5051853;28;20029;-52
2023/01/03 09:50:00;;;;;;;7.13;5.05;;;15.10;99.90;;;;;;5051881;28;20032;-50
2023/01/03 10:04:39;;;;;;;5.13;4.28;;;14.70;99.90;;;;;;5068295;28;20074;-50
2023/01/03 10:07:38;;;;;;;4.40;4.00;;;14.60;99.90;;;;;;5071286;28;20016;-49
2023/01/03 10:10:16;;;;;;;5.60;3.63;;;14.50;99.90;;;;;;5071537;28;20582;-47
2023/01/03 10:12:48;;;;;;;6.88;4.78;;;14.50;99.90;;;;;;5070719;28;20399;-47
2023/01/03 10:15:39;;;;;;;6.43;3.83;;;14.70;99.90;;;;;;5071516;28;20029;-49
2023/01/03 10:18:12;;;;;;;5.65;3.83;;;14.80;99.90;;;;;;5069953;28;20024;-51
2023/01/03 10:20:47;;;;;;;11.35;3.75;;;14.80;99.90;;;;;;5071553;28;20077;-49
2023/01/03 10:23:13;;;;;;;4.18;3.63;;;14.70;99.90;;;;;;5070724;28;20082;-50
2023/01/03 10:25:42;;;;;;;3.92;3.50;;;14.20;99.90;;;;;;5071293;28;20102;-52
2023/01/03 10:28:23;;;;;;;4.55;3.42;;;13.60;99.90;;;;;;5058517;28;20059;-47
2023/01/03 10:31:31;;;;;;;4.70;3.20;;;13.00;99.90;;;;;;5071435;28;20154;-52
2023/01/03 10:33:57;;;;;;;5.15;3.45;;;12.70;99.90;;;;;;5060676;28;20029;-52
2023/01/03 10:36:22;;;;;;;5.93;3.70;;;12.10;99.90;;;;;;5051217;28;20021;-52
2023/01/03 10:39:02;;;;;;;3.85;3.42;;;11.70;99.90;;;;;;5068810;28;20404;-50
2023/01/03 10:41:37;;;;;;;10.75;3.53;;;11.40;99.90;;;;;;5075226;28;20028;-48
2023/01/03 10:44:03;;;;;;;6.28;4.15;;;11.20;99.90;;;;;;5076593;28;20097;-49
2023/01/03 10:46:29;;;;;;;6.10;4.20;;;11.00;99.90;;;;;;5057924;28;20090;-48
2023/01/03 10:49:10;;;;;;;5.15;3.78;;;11.00;99.90;;;;;;5057928;28;20552;-47
2023/01/03 10:51:42;;;;;;;5.15;3.88;;;10.80;99.90;;;;;;5058593;28;20064;-48
2023/01/03 10:54:17;;;;;;;4.93;3.80;;;10.50;99.90;;;;;;5057090;28;20033;-48
2023/01/03 10:56:44;;;;;;;8.13;3.90;;;10.30;99.90;;;;;;5062728;28;20062;-47
2023/01/03 10:59:30;;;;;;;6.50;4.35;;;10.30;99.90;;;;;;5077972;28;20430;-47
2023/01/03 11:02:15;;;;;;;6.20;3.63;;;10.60;99.90;;;;;;5058906;28;20021;-46
2023/01/03 11:04:41;;;;;;;6.07;3.70;;;11.00;99.90;;;;;;5076891;28;20032;-46
2023/01/03 11:07:07;;;;;;;5.75;3.90;;;11.30;99.90;;;;;;5057390;28;20040;-46
2023/01/03 11:09:55;;;;;;;4.97;3.17;;;11.50;99.90;;;;;;5057688;28;20021;-45
2023/01/03 11:12:35;;;;;;;7.28;3.67;;;11.50;99.90;;;;;;5057161;28;20292;-48
2023/01/03 11:15:24;;;;;;;5.95;3.60;;;11.50;99.90;;;;;;5057252;28;20079;-48
2023/01/03 11:17:55;;;;;;;5.15;3.10;;;11.60;99.90;;;;;;5051079;28;20025;-45
2023/01/03 11:20:34;;;;;;;5.03;3.35;;;11.40;99.90;;;;;;5078138;28;20021;-45
2023/01/03 11:23:07;;;;;;;6.15;3.00;;;11.30;99.90;;;;;;5076905;28;20124;-48
2023/01/03 11:25:44;;;;;;;5.07;3.03;;;11.40;99.90;;;;;;5077634;28;20024;-46
2023/01/03 11:28:46;;;;;;;6.00;3.50;;;11.30;99.90;;;;;;5052846;28;20090;-47
2023/01/03 11:31:39;;;;;;;5.20;2.83;;;11.10;99.90;;;;;;5067630;28;20033;-49
2023/01/03 11:34:39;;;;;;;4.60;2.83;;;11.00;99.90;;;;;;5056807;28;20021;-48
2023/01/03 11:37:23;;;;;;;4.93;2.88;;;10.70;99.90;;;;;;5057407;28;20024;-48
2023/01/03 11:40:12;;;;;;;5.30;2.85;;;10.70;99.90;;;;;;5057539;28;20033;-49
2023/01/03 11:43:11;;;;;;;3.65;2.85;;;10.70;99.90;;;;;;5072772;28;20024;-48
2023/01/03 11:46:12;;;;;;;5.53;2.35;;;10.50;99.90;;;;;;5059316;28;20128;-48
2023/01/03 11:48:47;;;;;;;4.47;2.47;;;10.50;99.90;;;;;;5076838;28;20105;-51
2023/01/03 11:51:25;;;;;;;5.55;2.42;;;10.40;99.90;;;;;;5072989;28;20385;-50
2023/01/03 11:54:22;;;;;;;2.83;2.63;;;10.40;99.90;;;;;;5058486;28;20037;-53
2023/01/03 11:56:49;;;;;;;4.22;2.63;;;10.20;99.90;;;;;;5063000;28;20021;-49
2023/01/03 11:59:47;;;;;;;3.15;2.00;;;10.30;99.90;;;;;;5054032;28;20045;-47
2023/01/03 12:02:57;;;;;;;8.98;2.05;;;10.20;99.90;;;;;;5053388;28;20079;-50
2023/01/03 12:05:40;;;;;;;5.38;2.30;;;10.20;99.90;;;;;;5060527;28;20027;-49
2023/01/03 12:08:27;;;;;;;3.47;2.58;;;10.20;99.90;;;;;;5053419;28;20025;-52
2023/01/03 12:11:17;;;;;;;3.58;2.67;;;10.10;99.90;;;;;;5053610;28;20112;-51
2023/01/03 12:14:02;;;;;;;2.88;1.80;;;10.10;99.90;;;;;;5002079;28;20094;-49
2023/01/03 12:16:38;;;;;;;4.65;2.33;;;10.10;99.90;;;;;;5053817;28;20022;-46
2023/01/03 12:19:42;;;;;;;5.20;1.90;;;10.10;99.90;;;;;;5053509;28;20025;-51
2023/01/03 12:22:40;;;;;;;3.67;2.20;;;10.10;99.90;;;;;;5053119;28;20025;-49
2023/01/03 12:25:18;;;;;;;4.97;2.58;;;10.10;99.90;;;;;;4998933;28;20039;-52
2023/01/03 12:27:51;;;;;;;20.17;2.92;;;10.10;99.90;;;;;;5053241;28;20029;-47
2023/01/03 12:30:40;;;;;;;7.03;2.05;;;10.00;99.90;;;;;;5054283;28;20445;-52
2023/01/03 12:33:43;;;;;;;2.95;1.90;;;10.00;99.90;;;;;;5072285;28;20028;-49
2023/01/03 12:36:39;;;;;;;5.32;2.20;;;10.10;99.90;;;;;;5073073;28;20072;-46
2023/01/03 12:39:53;;;;;;;7.68;2.50;;;10.10;99.90;;;;;;5074548;28;20044;-49
2023/01/03 12:42:26;;;;;;;2.97;2.33;;;10.00;99.90;;;;;;5029882;28;20089;-48
2023/01/03 12:45:08;;;;;;;5.45;2.20;;;10.00;99.90;;;;;;5073228;28;20027;-50
2023/01/03 12:47:44;;;;;;;3.70;2.20;;;10.00;99.90;;;;;;5072937;28;20016;-48
2023/01/03 12:50:45;;;;;;;6.45;2.15;;;10.00;99.90;;;;;;5073053;28;20016;-50
2023/01/03 12:53:35;;;;;;;2.30;2.10;;;10.00;99.90;;;;;;5061386;28;20043;-49
2023/01/03 12:56:12;;;;;;;2.72;1.88;;;10.00;99.90;;;;;;5072840;28;20052;-50
2023/01/03 12:59:04;;;;;;;4.35;2.28;;;10.00;99.90;;;;;;5073168;28;20036;-48
2023/01/03 13:01:56;;;;;;;4.22;2.60;;;9.90;99.90;;;;;;5072763;28;20028;-50
2023/01/03 13:04:38;;;;;;;4.38;2.13;;;10.00;99.90;;;;;;5072928;28;20021;-51
2023/01/03 13:07:24;;;;;;;5.70;2.67;;;10.10;99.90;;;;;;5072528;28;20123;-50
2023/01/03 13:10:04;;;;;;;4.78;2.95;;;10.00;99.90;;;;;;5072846;28;20582;-47
2023/01/03 13:12:33;;;;;;;4.70;2.40;;;10.00;99.90;;;;;;5072112;28;20043;-50
2023/01/03 13:15:02;;;;;;;3.85;2.78;;;10.00;99.90;;;;;;5073213;28;20017;-50
2023/01/03 13:17:29;;;;;;;3.55;2.92;;;10.00;99.90;;;;;;5072759;28;20032;-49
2023/01/03 13:19:58;;;;;;;6.10;2.80;;;10.00;99.90;;;;;;5072710;28;20028;-53
2023/01/03 13:22:45;;;;;;;4.68;2.40;;;10.00;99.90;;;;;;5072246;28;20463;-51
2023/01/03 13:25:25;;;;;;;3.08;2.60;;;10.00;99.90;;;;;;5072478;28;20111;-49
2023/01/03 13:27:53;;;;;;;3.22;2.50;;;10.00;99.90;;;;;;5071947;28;20101;-48
2023/01/03 13:30:30;;;;;;;4.68;2.72;;;10.00;99.90;;;;;;5072098;28;20032;-52
2023/01/03 13:33:11;;;;;;;3.80;2.80;;;10.10;99.90;;;;;;5071438;28;20247;-49
2023/01/03 13:35:59;;;;;;;5.53;3.08;;;10.10;99.90;;;;;;5072222;28;20073;-49
2023/01/03 13:38:30;;;;;;;3.95;3.08;;;10.10;99.90;;;;;;5072070;28;20130;-51
2023/01/03 13:41:01;;;;;;;4.35;3.58;;;10.10;99.90;;;;;;5072034;28;20024;-49
2023/01/03 13:43:33;;;;;;;4.78;3.30;;;10.20;99.90;;;;;;5071437;28;20028;-50
2023/01/03 13:46:21;;;;;;;3.38;2.83;;;10.20;99.90;;;;;;5072011;28;20115;-49
2023/01/03 13:48:54;;;;;;;4.05;2.47;;;10.20;99.90;;;;;;5072460;28;20444;-50
2023/01/03 13:51:24;;;;;;;5.55;2.83;;;10.10;99.90;;;;;;5071787;28;20111;-49
2023/01/03 13:54:04;;;;;;;5.80;2.60;;;10.20;99.90;;;;;;5070895;28;20039;-49
2023/01/03 13:56:51;;;;;;;3.05;2.35;;;10.20;99.90;;;;;;5071955;28;20487;-51
2023/01/03 13:59:30;;;;;;;3.83;2.45;;;10.00;99.90;;;;;;5058434;28;20037;-50
2023/01/03 14:02:05;;;;;;;2.28;2.08;;;10.00;99.90;;;;;;5070990;28;20020;-51
2023/01/03 14:04:56;;;;;;;7.28;2.88;;;10.00;99.90;;;;;;5071376;28;20020;-50
2023/01/03 14:07:40;;;;;;;3.70;2.00;;;10.00;99.90;;;;;;5071733;28;20073;-50
2023/01/03 14:10:27;;;;;;;4.30;2.45;;;10.00;99.90;;;;;;5071708;28;20020;-46
2023/01/03 14:13:07;;;;;;;5.13;2.70;;;10.00;99.90;;;;;;5070170;28;20028;-47
2023/01/03 14:15:33;;;;;;;2.28;1.98;;;10.00;99.90;;;;;;5071648;28;20111;-49
2023/01/03 14:18:10;;;;;;;3.08;2.17;;;10.00;99.90;;;;;;5071403;28;20055;-48